sensor_id;sensor_type;location;lat;lon;timestamp;P1;durP1;ratioP1;P2;durP2;ratioP2
54428;SDS011;40337;52.978;6.310;2023-05-01T00:02:12;8.07;;;4.93;;
54428;SDS011;40337;52.978;6.310;2023-05-01T00:04:38;6.85;;;5.25;;
54428;SDS011;40337;52.978;6.310;2023-05-01T00:07:03;8.27;;;5.55;;
54428;SDS011;40337;52.978;6.310;2023-05-01T00:09:29;8.82;;;5.22;;
54428;SDS011;40337;52.978;6.310;2023-05-01T00:11:56;7.13;;;5.18;;
54428;SDS011;40337;52.978;6.310;2023-05-01T00:14:21;7.30;;;5.07;;
54428;SDS011;40337;52.978;6.310;2023-05-01T00:16:47;7.45;;;5.43;;
54428;SDS011;40337;52.978;6.310;2023-05-01T00:19:12;8.07;;;5.13;;
54428;SDS011;40337;52.978;6.310;2023-05-01T00:21:42;7.97;;;5.10;;
54428;SDS011;40337;52.978;6.310;2023-05-01T00:24:09;6.45;;;4.80;;
54428;SDS011;40337;52.978;6.310;2023-05-01T00:26:35;7.75;;;5.10;;
54428;SDS011;40337;52.978;6.310;2023-05-01T00:29:01;8.05;;;5.05;;
54428;SDS011;40337;52.978;6.310;2023-05-01T00:31:27;8.15;;;4.95;;
54428;SDS011;40337;52.978;6.310;2023-05-01T00:33:52;6.95;;;4.63;;
54428;SDS011;40337;52.978;6.310;2023-05-01T00:36:18;6.68;;;4.07;;
54428;SDS011;40337;52.978;6.310;2023-05-01T00:38:44;6.60;;;4.15;;
54428;SDS011;40337;52.978;6.310;2023-05-01T00:41:13;8.25;;;4.30;;
54428;SDS011;40337;52.978;6.310;2023-05-01T00:43:38;6.75;;;4.38;;
54428;SDS011;40337;52.978;6.310;2023-05-01T00:46:04;5.82;;;4.03;;
54428;SDS011;40337;52.978;6.310;2023-05-01T00:48:30;5.80;;;4.05;;
54428;SDS011;40337;52.978;6.310;2023-05-01T00:50:55;5.90;;;4.22;;
54428;SDS011;40337;52.978;6.310;2023-05-01T00:53:22;6.95;;;4.07;;
54428;SDS011;40337;52.978;6.310;2023-05-01T00:55:50;8.52;;;4.05;;
54428;SDS011;40337;52.978;6.310;2023-05-01T00:58:16;5.95;;;4.13;;
54428;SDS011;40337;52.978;6.310;2023-05-01T01:00:42;8.88;;;4.35;;
54428;SDS011;40337;52.978;6.310;2023-05-01T01:03:09;6.93;;;4.32;;
54428;SDS011;40337;52.978;6.310;2023-05-01T01:05:38;6.20;;;4.35;;
54428;SDS011;40337;52.978;6.310;2023-05-01T01:10:54;7.07;;;4.07;;
54428;SDS011;40337;52.978;6.310;2023-05-01T01:13:31;5.80;;;4.18;;
54428;SDS011;40337;52.978;6.310;2023-05-01T01:16:44;7.38;;;4.43;;
54428;SDS011;40337;52.978;6.310;2023-05-01T01:18:51;6.65;;;4.72;;
54428;SDS011;40337;52.978;6.310;2023-05-01T01:21:35;6.97;;;4.60;;
54428;SDS011;40337;52.978;6.310;2023-05-01T01:24:11;6.53;;;4.95;;
54428;SDS011;40337;52.978;6.310;2023-05-01T01:29:42;7.53;;;4.45;;
54428;SDS011;40337;52.978;6.310;2023-05-01T01:34:51;6.63;;;4.22;;
54428;SDS011;40337;52.978;6.310;2023-05-01T01:37:21;6.47;;;4.90;;
54428;SDS011;40337;52.978;6.310;2023-05-01T01:40:04;7.57;;;4.50;;
54428;SDS011;40337;52.978;6.310;2023-05-01T01:42:37;6.82;;;4.50;;
54428;SDS011;40337;52.978;6.310;2023-05-01T01:45:06;6.88;;;4.45;;
54428;SDS011;40337;52.978;6.310;2023-05-01T01:47:36;8.63;;;4.13;;
54428;SDS011;40337;52.978;6.310;2023-05-01T01:50:05;6.85;;;4.60;;
54428;SDS011;40337;52.978;6.310;2023-05-01T01:52:34;8.02;;;5.20;;
54428;SDS011;40337;52.978;6.310;2023-05-01T01:55:04;6.90;;;4.70;;
54428;SDS011;40337;52.978;6.310;2023-05-01T01:57:33;7.05;;;4.85;;
54428;SDS011;40337;52.978;6.310;2023-05-01T02:00:02;6.20;;;4.60;;
54428;SDS011;40337;52.978;6.310;2023-05-01T02:02:32;6.97;;;5.20;;
54428;SDS011;40337;52.978;6.310;2023-05-01T02:05:01;7.80;;;5.10;;
54428;SDS011;40337;52.978;6.310;2023-05-01T02:07:28;8.10;;;5.45;;
54428;SDS011;40337;52.978;6.310;2023-05-01T02:09:55;6.20;;;4.72;;
54428;SDS011;40337;52.978;6.310;2023-05-01T02:12:22;7.30;;;4.55;;
54428;SDS011;40337;52.978;6.310;2023-05-01T02:14:50;7.93;;;4.50;;
54428;SDS011;40337;52.978;6.310;2023-05-01T02:17:18;7.90;;;5.43;;
54428;SDS011;40337;52.978;6.310;2023-05-01T02:19:45;6.65;;;4.80;;
54428;SDS011;40337;52.978;6.310;2023-05-01T02:22:11;6.97;;;4.63;;
54428;SDS011;40337;52.978;6.310;2023-05-01T02:24:38;8.35;;;5.43;;
54428;SDS011;40337;52.978;6.310;2023-05-01T02:27:10;8.23;;;5.20;;
54428;SDS011;40337;52.978;6.310;2023-05-01T02:29:43;6.38;;;4.95;;
54428;SDS011;40337;52.978;6.310;2023-05-01T02:32:08;7.85;;;5.00;;
54428;SDS011;40337;52.978;6.310;2023-05-01T02:34:34;7.30;;;5.75;;
54428;SDS011;40337;52.978;6.310;2023-05-01T02:37:00;9.95;;;5.60;;
54428;SDS011;40337;52.978;6.310;2023-05-01T02:39:26;7.25;;;4.85;;
54428;SDS011;40337;52.978;6.310;2023-05-01T02:41:52;8.35;;;5.30;;
54428;SDS011;40337;52.978;6.310;2023-05-01T02:44:20;8.23;;;5.63;;
54428;SDS011;40337;52.978;6.310;2023-05-01T02:46:48;7.50;;;5.15;;
54428;SDS011;40337;52.978;6.310;2023-05-01T02:49:16;8.00;;;5.22;;
54428;SDS011;40337;52.978;6.310;2023-05-01T02:51:42;7.35;;;5.45;;
54428;SDS011;40337;52.978;6.310;2023-05-01T02:54:10;7.95;;;5.82;;
54428;SDS011;40337;52.978;6.310;2023-05-01T02:56:36;8.88;;;5.55;;
54428;SDS011;40337;52.978;6.310;2023-05-01T02:59:02;8.13;;;5.72;;
54428;SDS011;40337;52.978;6.310;2023-05-01T03:01:28;6.55;;;5.20;;
54428;SDS011;40337;52.978;6.310;2023-05-01T03:03:53;6.35;;;5.10;;
54428;SDS011;40337;52.978;6.310;2023-05-01T03:06:19;7.28;;;5.43;;
54428;SDS011;40337;52.978;6.310;2023-05-01T03:08:45;8.57;;;5.97;;
54428;SDS011;40337;52.978;6.310;2023-05-01T03:11:11;7.30;;;5.60;;
54428;SDS011;40337;52.978;6.310;2023-05-01T03:13:38;7.57;;;5.63;;
54428;SDS011;40337;52.978;6.310;2023-05-01T03:16:03;9.48;;;6.10;;
54428;SDS011;40337;52.978;6.310;2023-05-01T03:18:29;7.78;;;6.18;;
54428;SDS011;40337;52.978;6.310;2023-05-01T03:20:55;7.80;;;5.80;;
54428;SDS011;40337;52.978;6.310;2023-05-01T03:23:23;10.02;;;6.32;;
54428;SDS011;40337;52.978;6.310;2023-05-01T03:25:49;8.15;;;5.88;;
54428;SDS011;40337;52.978;6.310;2023-05-01T03:28:15;7.15;;;6.00;;
54428;SDS011;40337;52.978;6.310;2023-05-01T03:30:42;7.53;;;6.00;;
54428;SDS011;40337;52.978;6.310;2023-05-01T03:33:08;8.48;;;5.38;;
54428;SDS011;40337;52.978;6.310;2023-05-01T03:35:34;8.38;;;5.82;;
54428;SDS011;40337;52.978;6.310;2023-05-01T03:37:59;8.63;;;5.55;;
54428;SDS011;40337;52.978;6.310;2023-05-01T03:40:25;9.65;;;6.35;;
54428;SDS011;40337;52.978;6.310;2023-05-01T03:42:51;8.65;;;6.07;;
54428;SDS011;40337;52.978;6.310;2023-05-01T03:45:16;6.70;;;5.60;;
54428;SDS011;40337;52.978;6.310;2023-05-01T03:47:42;7.00;;;5.80;;
54428;SDS011;40337;52.978;6.310;2023-05-01T03:50:08;9.70;;;6.30;;
54428;SDS011;40337;52.978;6.310;2023-05-01T03:52:35;7.00;;;5.70;;
54428;SDS011;40337;52.978;6.310;2023-05-01T03:55:01;8.02;;;5.90;;
54428;SDS011;40337;52.978;6.310;2023-05-01T03:57:26;11.13;;;6.07;;
54428;SDS011;40337;52.978;6.310;2023-05-01T03:59:52;9.50;;;6.53;;
54428;SDS011;40337;52.978;6.310;2023-05-01T04:02:18;9.23;;;6.45;;
54428;SDS011;40337;52.978;6.310;2023-05-01T04:04:44;9.32;;;6.65;;
54428;SDS011;40337;52.978;6.310;2023-05-01T04:07:09;9.95;;;6.88;;
54428;SDS011;40337;52.978;6.310;2023-05-01T04:09:36;8.35;;;6.70;;
54428;SDS011;40337;52.978;6.310;2023-05-01T04:12:01;8.73;;;6.50;;
54428;SDS011;40337;52.978;6.310;2023-05-01T04:14:27;8.90;;;6.13;;
54428;SDS011;40337;52.978;6.310;2023-05-01T04:16:53;9.82;;;6.50;;
54428;SDS011;40337;52.978;6.310;2023-05-01T04:19:19;7.88;;;6.05;;
54428;SDS011;40337;52.978;6.310;2023-05-01T04:21:44;9.48;;;6.60;;
54428;SDS011;40337;52.978;6.310;2023-05-01T04:24:11;10.48;;;6.95;;
54428;SDS011;40337;52.978;6.310;2023-05-01T04:26:37;9.90;;;6.65;;
54428;SDS011;40337;52.978;6.310;2023-05-01T04:29:03;9.75;;;6.28;;
54428;SDS011;40337;52.978;6.310;2023-05-01T04:31:28;10.82;;;7.13;;
54428;SDS011;40337;52.978;6.310;2023-05-01T04:33:54;7.57;;;6.43;;
54428;SDS011;40337;52.978;6.310;2023-05-01T04:36:20;8.70;;;6.15;;
54428;SDS011;40337;52.978;6.310;2023-05-01T04:38:46;11.30;;;6.88;;
54428;SDS011;40337;52.978;6.310;2023-05-01T04:41:12;9.88;;;6.38;;
54428;SDS011;40337;52.978;6.310;2023-05-01T04:43:38;8.95;;;6.78;;
54428;SDS011;40337;52.978;6.310;2023-05-01T04:46:03;10.32;;;7.05;;
54428;SDS011;40337;52.978;6.310;2023-05-01T04:48:29;9.13;;;6.65;;
54428;SDS011;40337;52.978;6.310;2023-05-01T04:50:54;9.23;;;7.05;;
54428;SDS011;40337;52.978;6.310;2023-05-01T04:53:20;9.25;;;6.43;;
54428;SDS011;40337;52.978;6.310;2023-05-01T04:55:45;13.93;;;6.82;;
54428;SDS011;40337;52.978;6.310;2023-05-01T04:58:11;10.57;;;6.82;;
54428;SDS011;40337;52.978;6.310;2023-05-01T05:00:37;10.30;;;6.95;;
54428;SDS011;40337;52.978;6.310;2023-05-01T05:03:02;10.57;;;7.10;;
54428;SDS011;40337;52.978;6.310;2023-05-01T05:05:28;9.45;;;6.80;;
54428;SDS011;40337;52.978;6.310;2023-05-01T05:07:54;10.20;;;6.85;;
54428;SDS011;40337;52.978;6.310;2023-05-01T05:10:19;11.25;;;7.63;;
54428;SDS011;40337;52.978;6.310;2023-05-01T05:12:45;9.23;;;7.38;;
54428;SDS011;40337;52.978;6.310;2023-05-01T05:15:10;11.07;;;7.32;;
54428;SDS011;40337;52.978;6.310;2023-05-01T05:17:36;10.38;;;7.53;;
54428;SDS011;40337;52.978;6.310;2023-05-01T05:20:02;11.77;;;7.35;;
54428;SDS011;40337;52.978;6.310;2023-05-01T05:22:28;10.73;;;7.63;;
54428;SDS011;40337;52.978;6.310;2023-05-01T05:24:53;10.38;;;7.50;;
54428;SDS011;40337;52.978;6.310;2023-05-01T05:27:23;10.85;;;7.50;;
54428;SDS011;40337;52.978;6.310;2023-05-01T05:29:50;11.57;;;6.90;;
54428;SDS011;40337;52.978;6.310;2023-05-01T05:32:15;11.60;;;7.45;;
54428;SDS011;40337;52.978;6.310;2023-05-01T05:34:41;10.63;;;7.50;;
54428;SDS011;40337;52.978;6.310;2023-05-01T05:37:07;12.88;;;7.72;;
54428;SDS011;40337;52.978;6.310;2023-05-01T05:39:32;11.80;;;6.95;;
54428;SDS011;40337;52.978;6.310;2023-05-01T05:41:58;11.15;;;7.43;;
54428;SDS011;40337;52.978;6.310;2023-05-01T05:44:23;10.52;;;7.72;;
54428;SDS011;40337;52.978;6.310;2023-05-01T05:46:49;11.27;;;7.80;;
54428;SDS011;40337;52.978;6.310;2023-05-01T05:49:15;11.57;;;7.60;;
54428;SDS011;40337;52.978;6.310;2023-05-01T05:51:40;12.57;;;7.35;;
54428;SDS011;40337;52.978;6.310;2023-05-01T05:54:06;11.10;;;7.75;;
54428;SDS011;40337;52.978;6.310;2023-05-01T05:56:31;14.63;;;7.90;;
54428;SDS011;40337;52.978;6.310;2023-05-01T05:58:57;9.32;;;7.38;;
54428;SDS011;40337;52.978;6.310;2023-05-01T06:01:26;12.73;;;7.60;;
54428;SDS011;40337;52.978;6.310;2023-05-01T06:03:52;12.43;;;7.43;;
54428;SDS011;40337;52.978;6.310;2023-05-01T06:06:17;10.75;;;7.43;;
54428;SDS011;40337;52.978;6.310;2023-05-01T06:08:43;10.45;;;7.20;;
54428;SDS011;40337;52.978;6.310;2023-05-01T06:11:10;10.30;;;7.35;;
54428;SDS011;40337;52.978;6.310;2023-05-01T06:13:35;9.93;;;7.13;;
54428;SDS011;40337;52.978;6.310;2023-05-01T06:16:01;10.30;;;6.97;;
54428;SDS011;40337;52.978;6.310;2023-05-01T06:18:27;12.85;;;7.80;;
54428;SDS011;40337;52.978;6.310;2023-05-01T06:20:54;10.73;;;7.75;;
54428;SDS011;40337;52.978;6.310;2023-05-01T06:23:20;10.13;;;7.70;;
54428;SDS011;40337;52.978;6.310;2023-05-01T06:25:46;9.88;;;7.30;;
54428;SDS011;40337;52.978;6.310;2023-05-01T06:28:13;10.15;;;7.05;;
54428;SDS011;40337;52.978;6.310;2023-05-01T06:30:38;10.32;;;6.90;;
54428;SDS011;40337;52.978;6.310;2023-05-01T06:33:04;9.07;;;6.72;;
54428;SDS011;40337;52.978;6.310;2023-05-01T06:35:29;10.65;;;7.40;;
54428;SDS011;40337;52.978;6.310;2023-05-01T06:37:55;10.30;;;7.50;;
54428;SDS011;40337;52.978;6.310;2023-05-01T06:40:21;9.68;;;6.80;;
54428;SDS011;40337;52.978;6.310;2023-05-01T06:42:46;10.95;;;7.70;;
54428;SDS011;40337;52.978;6.310;2023-05-01T06:45:12;13.45;;;6.78;;
54428;SDS011;40337;52.978;6.310;2023-05-01T06:47:38;9.63;;;7.22;;
54428;SDS011;40337;52.978;6.310;2023-05-01T06:50:03;10.25;;;7.22;;
54428;SDS011;40337;52.978;6.310;2023-05-01T06:52:29;11.40;;;6.78;;
54428;SDS011;40337;52.978;6.310;2023-05-01T06:54:55;11.02;;;6.75;;
54428;SDS011;40337;52.978;6.310;2023-05-01T06:57:21;12.10;;;6.35;;
54428;SDS011;40337;52.978;6.310;2023-05-01T06:59:46;10.25;;;6.70;;
54428;SDS011;40337;52.978;6.310;2023-05-01T07:02:12;12.15;;;6.78;;
54428;SDS011;40337;52.978;6.310;2023-05-01T07:04:37;10.50;;;6.70;;
54428;SDS011;40337;52.978;6.310;2023-05-01T07:07:03;9.45;;;6.18;;
54428;SDS011;40337;52.978;6.310;2023-05-01T07:09:28;11.73;;;6.25;;
54428;SDS011;40337;52.978;6.310;2023-05-01T07:11:54;8.75;;;6.20;;
54428;SDS011;40337;52.978;6.310;2023-05-01T07:14:21;7.82;;;5.88;;
54428;SDS011;40337;52.978;6.310;2023-05-01T07:16:47;11.38;;;6.40;;
54428;SDS011;40337;52.978;6.310;2023-05-01T07:19:13;11.30;;;6.75;;
54428;SDS011;40337;52.978;6.310;2023-05-01T07:21:39;7.57;;;5.78;;
54428;SDS011;40337;52.978;6.310;2023-05-01T07:24:05;7.18;;;5.68;;
54428;SDS011;40337;52.978;6.310;2023-05-01T07:26:31;10.80;;;6.47;;
54428;SDS011;40337;52.978;6.310;2023-05-01T07:28:56;9.05;;;6.20;;
54428;SDS011;40337;52.978;6.310;2023-05-01T07:31:22;9.60;;;5.80;;
54428;SDS011;40337;52.978;6.310;2023-05-01T07:33:47;7.80;;;5.65;;
54428;SDS011;40337;52.978;6.310;2023-05-01T07:36:13;8.48;;;5.90;;
54428;SDS011;40337;52.978;6.310;2023-05-01T07:38:38;9.07;;;5.90;;
54428;SDS011;40337;52.978;6.310;2023-05-01T07:41:04;7.57;;;5.30;;
54428;SDS011;40337;52.978;6.310;2023-05-01T07:43:30;8.80;;;5.60;;
54428;SDS011;40337;52.978;6.310;2023-05-01T07:45:56;9.57;;;5.28;;
54428;SDS011;40337;52.978;6.310;2023-05-01T07:48:28;8.63;;;5.20;;
54428;SDS011;40337;52.978;6.310;2023-05-01T07:50:54;7.70;;;5.43;;
54428;SDS011;40337;52.978;6.310;2023-05-01T07:53:20;9.45;;;5.50;;
54428;SDS011;40337;52.978;6.310;2023-05-01T07:55:46;9.05;;;5.30;;
54428;SDS011;40337;52.978;6.310;2023-05-01T07:58:12;7.97;;;5.25;;
54428;SDS011;40337;52.978;6.310;2023-05-01T08:00:38;10.68;;;5.53;;
54428;SDS011;40337;52.978;6.310;2023-05-01T08:03:04;8.50;;;5.30;;
54428;SDS011;40337;52.978;6.310;2023-05-01T08:05:29;7.60;;;5.30;;
54428;SDS011;40337;52.978;6.310;2023-05-01T08:07:58;9.95;;;5.30;;
54428;SDS011;40337;52.978;6.310;2023-05-01T08:10:23;8.57;;;5.35;;
54428;SDS011;40337;52.978;6.310;2023-05-01T08:12:49;9.65;;;5.72;;
54428;SDS011;40337;52.978;6.310;2023-05-01T08:15:15;10.25;;;5.57;;
54428;SDS011;40337;52.978;6.310;2023-05-01T08:17:40;8.82;;;5.13;;
54428;SDS011;40337;52.978;6.310;2023-05-01T08:20:06;8.45;;;5.50;;
54428;SDS011;40337;52.978;6.310;2023-05-01T08:22:32;8.98;;;4.82;;
54428;SDS011;40337;52.978;6.310;2023-05-01T08:24:58;8.35;;;5.13;;
54428;SDS011;40337;52.978;6.310;2023-05-01T08:27:24;9.57;;;5.15;;
54428;SDS011;40337;52.978;6.310;2023-05-01T08:29:50;10.63;;;5.45;;
54428;SDS011;40337;52.978;6.310;2023-05-01T08:32:16;7.53;;;4.80;;
54428;SDS011;40337;52.978;6.310;2023-05-01T08:34:42;9.00;;;4.70;;
54428;SDS011;40337;52.978;6.310;2023-05-01T08:37:08;8.30;;;4.90;;
54428;SDS011;40337;52.978;6.310;2023-05-01T08:39:33;8.48;;;4.40;;
54428;SDS011;40337;52.978;6.310;2023-05-01T08:41:59;9.05;;;4.45;;
54428;SDS011;40337;52.978;6.310;2023-05-01T08:44:25;7.30;;;4.53;;
54428;SDS011;40337;52.978;6.310;2023-05-01T08:49:36;8.63;;;4.53;;
54428;SDS011;40337;52.978;6.310;2023-05-01T08:52:02;8.57;;;4.28;;
54428;SDS011;40337;52.978;6.310;2023-05-01T08:54:30;7.30;;;4.10;;
54428;SDS011;40337;52.978;6.310;2023-05-01T08:57:01;5.88;;;4.03;;
54428;SDS011;40337;52.978;6.310;2023-05-01T08:59:33;8.63;;;4.35;;
54428;SDS011;40337;52.978;6.310;2023-05-01T09:02:00;7.93;;;4.30;;
54428;SDS011;40337;52.978;6.310;2023-05-01T09:04:37;7.30;;;4.25;;
54428;SDS011;40337;52.978;6.310;2023-05-01T09:07:04;7.97;;;4.17;;
54428;SDS011;40337;52.978;6.310;2023-05-01T09:09:30;7.30;;;4.38;;
54428;SDS011;40337;52.978;6.310;2023-05-01T09:11:58;7.65;;;4.30;;
54428;SDS011;40337;52.978;6.310;2023-05-01T09:14:43;10.63;;;5.15;;
54428;SDS011;40337;52.978;6.310;2023-05-01T09:17:09;9.02;;;4.45;;
54428;SDS011;40337;52.978;6.310;2023-05-01T09:19:36;7.43;;;4.30;;
54428;SDS011;40337;52.978;6.310;2023-05-01T09:22:01;8.52;;;4.18;;
54428;SDS011;40337;52.978;6.310;2023-05-01T09:24:27;8.20;;;4.03;;
54428;SDS011;40337;52.978;6.310;2023-05-01T09:26:53;6.43;;;3.80;;
54428;SDS011;40337;52.978;6.310;2023-05-01T09:29:40;7.20;;;3.72;;
54428;SDS011;40337;52.978;6.310;2023-05-01T09:34:45;6.68;;;3.40;;
54428;SDS011;40337;52.978;6.310;2023-05-01T09:37:25;7.40;;;3.50;;
54428;SDS011;40337;52.978;6.310;2023-05-01T09:40:08;6.68;;;3.80;;
54428;SDS011;40337;52.978;6.310;2023-05-01T09:42:38;6.65;;;2.85;;
54428;SDS011;40337;52.978;6.310;2023-05-01T09:45:06;5.28;;;2.78;;
54428;SDS011;40337;52.978;6.310;2023-05-01T09:47:37;5.57;;;2.60;;
54428;SDS011;40337;52.978;6.310;2023-05-01T09:50:04;5.80;;;3.00;;
54428;SDS011;40337;52.978;6.310;2023-05-01T09:52:30;5.15;;;2.45;;
54428;SDS011;40337;52.978;6.310;2023-05-01T09:55:13;3.38;;;2.03;;
54428;SDS011;40337;52.978;6.310;2023-05-01T09:57:40;7.13;;;2.60;;
54428;SDS011;40337;52.978;6.310;2023-05-01T10:00:08;6.00;;;2.30;;
54428;SDS011;40337;52.978;6.310;2023-05-01T10:02:34;4.88;;;2.10;;
54428;SDS011;40337;52.978;6.310;2023-05-01T10:05:01;6.68;;;2.45;;
54428;SDS011;40337;52.978;6.310;2023-05-01T10:07:27;5.35;;;2.95;;
54428;SDS011;40337;52.978;6.310;2023-05-01T10:09:53;4.57;;;2.17;;
54428;SDS011;40337;52.978;6.310;2023-05-01T10:12:26;5.68;;;2.45;;
54428;SDS011;40337;52.978;6.310;2023-05-01T10:14:54;4.13;;;2.17;;
54428;SDS011;40337;52.978;6.310;2023-05-01T10:17:20;16.80;;;3.83;;
54428;SDS011;40337;52.978;6.310;2023-05-01T10:19:47;5.35;;;2.80;;
54428;SDS011;40337;52.978;6.310;2023-05-01T10:22:13;5.55;;;2.80;;
54428;SDS011;40337;52.978;6.310;2023-05-01T10:24:39;11.20;;;3.35;;
54428;SDS011;40337;52.978;6.310;2023-05-01T10:27:06;5.45;;;2.70;;
54428;SDS011;40337;52.978;6.310;2023-05-01T10:29:33;5.53;;;2.92;;
54428;SDS011;40337;52.978;6.310;2023-05-01T10:32:01;6.70;;;3.20;;
54428;SDS011;40337;52.978;6.310;2023-05-01T10:34:29;3.97;;;2.47;;
54428;SDS011;40337;52.978;6.310;2023-05-01T10:36:57;5.03;;;2.70;;
54428;SDS011;40337;52.978;6.310;2023-05-01T10:39:30;5.50;;;2.60;;
54428;SDS011;40337;52.978;6.310;2023-05-01T10:42:00;6.20;;;2.55;;
54428;SDS011;40337;52.978;6.310;2023-05-01T10:44:27;6.20;;;2.85;;
54428;SDS011;40337;52.978;6.310;2023-05-01T10:46:53;4.57;;;2.90;;
54428;SDS011;40337;52.978;6.310;2023-05-01T10:49:19;4.32;;;2.65;;
54428;SDS011;40337;52.978;6.310;2023-05-01T10:54:26;6.80;;;3.40;;
54428;SDS011;40337;52.978;6.310;2023-05-01T10:56:54;9.80;;;3.35;;
54428;SDS011;40337;52.978;6.310;2023-05-01T10:59:22;6.10;;;3.55;;
54428;SDS011;40337;52.978;6.310;2023-05-01T11:01:48;6.50;;;3.20;;
54428;SDS011;40337;52.978;6.310;2023-05-01T11:09:39;6.55;;;2.80;;
54428;SDS011;40337;52.978;6.310;2023-05-01T11:12:10;4.28;;;2.38;;
54428;SDS011;40337;52.978;6.310;2023-05-01T11:22:32;4.90;;;2.40;;
54428;SDS011;40337;52.978;6.310;2023-05-01T11:25:01;4.15;;;2.00;;
54428;SDS011;40337;52.978;6.310;2023-05-01T11:27:30;5.70;;;2.30;;
54428;SDS011;40337;52.978;6.310;2023-05-01T11:29:57;6.70;;;2.22;;
54428;SDS011;40337;52.978;6.310;2023-05-01T11:32:26;5.97;;;1.67;;
54428;SDS011;40337;52.978;6.310;2023-05-01T11:34:54;4.47;;;1.95;;
54428;SDS011;40337;52.978;6.310;2023-05-01T11:37:28;6.50;;;1.83;;
54428;SDS011;40337;52.978;6.310;2023-05-01T11:40:17;4.60;;;1.95;;
54428;SDS011;40337;52.978;6.310;2023-05-01T11:42:45;22.75;;;4.88;;
54428;SDS011;40337;52.978;6.310;2023-05-01T11:45:10;16.77;;;4.15;;
54428;SDS011;40337;52.978;6.310;2023-05-01T11:47:36;7.40;;;3.25;;
54428;SDS011;40337;52.978;6.310;2023-05-01T11:50:03;5.47;;;2.60;;
54428;SDS011;40337;52.978;6.310;2023-05-01T11:52:39;5.43;;;2.20;;
54428;SDS011;40337;52.978;6.310;2023-05-01T11:55:18;6.75;;;2.55;;
54428;SDS011;40337;52.978;6.310;2023-05-01T11:57:54;4.50;;;1.95;;
54428;SDS011;40337;52.978;6.310;2023-05-01T12:00:28;6.13;;;1.90;;
54428;SDS011;40337;52.978;6.310;2023-05-01T12:03:05;4.60;;;1.80;;
54428;SDS011;40337;52.978;6.310;2023-05-01T12:05:33;4.45;;;1.80;;
54428;SDS011;40337;52.978;6.310;2023-05-01T12:10:34;3.30;;;1.80;;
54428;SDS011;40337;52.978;6.310;2023-05-01T12:13:04;6.15;;;2.00;;
54428;SDS011;40337;52.978;6.310;2023-05-01T12:15:31;5.15;;;2.50;;
54428;SDS011;40337;52.978;6.310;2023-05-01T12:18:00;4.75;;;2.40;;
54428;SDS011;40337;52.978;6.310;2023-05-01T12:20:36;5.70;;;2.60;;
54428;SDS011;40337;52.978;6.310;2023-05-01T12:23:03;5.20;;;2.70;;
54428;SDS011;40337;52.978;6.310;2023-05-01T12:25:30;5.85;;;2.97;;
54428;SDS011;40337;52.978;6.310;2023-05-01T12:27:58;5.88;;;2.67;;
54428;SDS011;40337;52.978;6.310;2023-05-01T12:30:25;5.57;;;2.40;;
54428;SDS011;40337;52.978;6.310;2023-05-01T12:32:51;4.60;;;2.22;;
54428;SDS011;40337;52.978;6.310;2023-05-01T12:35:17;6.57;;;2.80;;
54428;SDS011;40337;52.978;6.310;2023-05-01T12:37:43;4.10;;;2.28;;
54428;SDS011;40337;52.978;6.310;2023-05-01T12:40:12;5.28;;;2.85;;
54428;SDS011;40337;52.978;6.310;2023-05-01T12:42:38;4.47;;;2.00;;
54428;SDS011;40337;52.978;6.310;2023-05-01T12:45:05;4.72;;;2.20;;
54428;SDS011;40337;52.978;6.310;2023-05-01T12:47:37;3.78;;;2.03;;
54428;SDS011;40337;52.978;6.310;2023-05-01T12:50:03;4.82;;;2.45;;
54428;SDS011;40337;52.978;6.310;2023-05-01T12:52:29;4.80;;;1.98;;
54428;SDS011;40337;52.978;6.310;2023-05-01T12:55:00;5.78;;;2.67;;
54428;SDS011;40337;52.978;6.310;2023-05-01T12:57:27;5.70;;;2.00;;
54428;SDS011;40337;52.978;6.310;2023-05-01T12:59:57;4.25;;;2.00;;
54428;SDS011;40337;52.978;6.310;2023-05-01T13:02:29;3.92;;;1.92;;
54428;SDS011;40337;52.978;6.310;2023-05-01T13:05:06;4.70;;;2.20;;
54428;SDS011;40337;52.978;6.310;2023-05-01T13:07:33;5.13;;;2.00;;
54428;SDS011;40337;52.978;6.310;2023-05-01T13:10:00;16.33;;;3.50;;
54428;SDS011;40337;52.978;6.310;2023-05-01T13:12:27;3.97;;;2.38;;
54428;SDS011;40337;52.978;6.310;2023-05-01T13:14:54;4.38;;;2.78;;
54428;SDS011;40337;52.978;6.310;2023-05-01T13:17:21;4.65;;;2.72;;
54428;SDS011;40337;52.978;6.310;2023-05-01T13:20:00;5.30;;;2.40;;
54428;SDS011;40337;52.978;6.310;2023-05-01T13:22:28;5.50;;;2.17;;
54428;SDS011;40337;52.978;6.310;2023-05-01T13:24:58;6.47;;;2.20;;
54428;SDS011;40337;52.978;6.310;2023-05-01T13:27:25;8.77;;;2.60;;
54428;SDS011;40337;52.978;6.310;2023-05-01T13:29:55;6.70;;;2.90;;
54428;SDS011;40337;52.978;6.310;2023-05-01T13:32:22;5.65;;;2.92;;
54428;SDS011;40337;52.978;6.310;2023-05-01T13:34:49;5.90;;;3.00;;
54428;SDS011;40337;52.978;6.310;2023-05-01T13:37:15;6.22;;;3.33;;
54428;SDS011;40337;52.978;6.310;2023-05-01T13:39:41;9.75;;;3.25;;
54428;SDS011;40337;52.978;6.310;2023-05-01T13:42:08;9.18;;;3.65;;
54428;SDS011;40337;52.978;6.310;2023-05-01T13:44:43;11.02;;;3.85;;
54428;SDS011;40337;52.978;6.310;2023-05-01T13:47:15;7.88;;;3.47;;
54428;SDS011;40337;52.978;6.310;2023-05-01T13:49:42;7.30;;;3.55;;
54428;SDS011;40337;52.978;6.310;2023-05-01T13:52:15;7.25;;;3.80;;
54428;SDS011;40337;52.978;6.310;2023-05-01T13:54:43;9.30;;;3.85;;
54428;SDS011;40337;52.978;6.310;2023-05-01T13:57:09;6.50;;;3.63;;
54428;SDS011;40337;52.978;6.310;2023-05-01T13:59:36;7.00;;;3.90;;
54428;SDS011;40337;52.978;6.310;2023-05-01T14:02:20;8.30;;;4.40;;
54428;SDS011;40337;52.978;6.310;2023-05-01T14:04:48;8.45;;;4.30;;
54428;SDS011;40337;52.978;6.310;2023-05-01T14:07:18;8.57;;;5.22;;
54428;SDS011;40337;52.978;6.310;2023-05-01T14:09:45;10.88;;;5.78;;
54428;SDS011;40337;52.978;6.310;2023-05-01T14:14:50;10.15;;;5.05;;
54428;SDS011;40337;52.978;6.310;2023-05-01T14:17:17;8.93;;;5.63;;
54428;SDS011;40337;52.978;6.310;2023-05-01T14:19:43;9.07;;;4.43;;
54428;SDS011;40337;52.978;6.310;2023-05-01T14:22:09;7.63;;;3.90;;
54428;SDS011;40337;52.978;6.310;2023-05-01T14:24:35;7.07;;;3.63;;
54428;SDS011;40337;52.978;6.310;2023-05-01T14:27:05;5.70;;;3.60;;
54428;SDS011;40337;52.978;6.310;2023-05-01T14:29:32;6.90;;;3.53;;
54428;SDS011;40337;52.978;6.310;2023-05-01T14:32:01;6.30;;;4.00;;
54428;SDS011;40337;52.978;6.310;2023-05-01T14:34:28;10.57;;;4.50;;
54428;SDS011;40337;52.978;6.310;2023-05-01T14:36:54;7.75;;;3.92;;
54428;SDS011;40337;52.978;6.310;2023-05-01T14:39:20;7.25;;;3.78;;
54428;SDS011;40337;52.978;6.310;2023-05-01T14:41:46;6.65;;;4.00;;
54428;SDS011;40337;52.978;6.310;2023-05-01T14:44:16;7.15;;;4.07;;
54428;SDS011;40337;52.978;6.310;2023-05-01T14:46:45;7.15;;;4.30;;
54428;SDS011;40337;52.978;6.310;2023-05-01T14:49:18;6.95;;;4.00;;
54428;SDS011;40337;52.978;6.310;2023-05-01T14:51:45;9.38;;;5.85;;
54428;SDS011;40337;52.978;6.310;2023-05-01T14:54:11;8.02;;;4.40;;
54428;SDS011;40337;52.978;6.310;2023-05-01T14:56:38;7.55;;;3.92;;
54428;SDS011;40337;52.978;6.310;2023-05-01T14:59:04;7.47;;;4.70;;
54428;SDS011;40337;52.978;6.310;2023-05-01T15:01:29;10.40;;;4.28;;
54428;SDS011;40337;52.978;6.310;2023-05-01T15:03:55;9.27;;;5.22;;
54428;SDS011;40337;52.978;6.310;2023-05-01T15:06:21;6.03;;;4.30;;
54428;SDS011;40337;52.978;6.310;2023-05-01T15:08:48;6.18;;;4.00;;
54428;SDS011;40337;52.978;6.310;2023-05-01T15:11:13;5.88;;;4.00;;
54428;SDS011;40337;52.978;6.310;2023-05-01T15:13:40;7.90;;;4.00;;
54428;SDS011;40337;52.978;6.310;2023-05-01T15:16:10;8.93;;;4.95;;
54428;SDS011;40337;52.978;6.310;2023-05-01T15:18:36;9.70;;;4.90;;
54428;SDS011;40337;52.978;6.310;2023-05-01T15:21:02;7.55;;;4.28;;
54428;SDS011;40337;52.978;6.310;2023-05-01T15:23:27;7.35;;;4.28;;